Saint Albans, New York
Current Conditions -  °F | °C
As of 2:51 PM on Sunday 25 Jan 2015 (Local Time) from KJFK Reporting Station
Broken Clouds Broken Clouds  
Wind Chill: 36°   Ceiling: 24000
Heat Index: 44°   Visibility: 10mi
Dew Point: 10°   Wind: 20mph
Humidity: 25%   Direction: 300°WNW
Pressure: 29.79"   Gusts: NA
Location:  40.7°N, 73.76°W
Report Text: KJFK 251951Z 30017KT 10SM FEW042 BKN240 07/M12 A2979 RMK AO2 PK WND 30027/1858 SLP089 T00671122 $
Loading
Personal Weather Stations






























Interactive Weather Map New forecast layout! Learn more

10-Day Weather Forecast

Advertisements
Track Severe Weather on mobile